Time,TemperatureF,DewpointF,PressureIn,WindDirection,WindDirectionDegrees,WindSpeedMPH,WindSpeedGustMPH,Humidity,HourlyPrecipIn,Conditions,Clouds,dailyrainin,SolarRadiationWatts/m^2,SoftwareType,DateUTC
2013-06-09 00:00:00,81.0,47.0,-100.00,WNW,290,5.0,10.0,31,0.00,,,0.00,0.000000,,2013-06-09 07:00:00,
2013-06-09 00:22:00,81.0,47.0,-100.00,WNW,290,5.0,10.0,31,0.00,,,0.00,0.000000,,2013-06-09 07:22:00,
2013-06-09 00:32:00,81.0,47.0,-100.00,WNW,290,5.0,10.0,31,0.00,,,0.00,0.000000,,2013-06-09 07:32:00,
2013-06-09 00:42:00,81.0,47.0,-100.00,WNW,290,5.0,10.0,31,0.00,,,0.00,0.000000,,2013-06-09 07:42:00,
2013-06-09 00:52:00,81.0,47.0,-100.00,WNW,290,5.0,10.0,31,0.00,,,0.00,0.000000,,2013-06-09 07:52:00,
2013-06-09 01:00:00,79.0,49.0,-100.00,West,280,8.0,13.0,35,0.00,,,0.00,0.000000,,2013-06-09 08:00:00,
2013-06-09 01:22:00,79.0,49.0,-100.00,West,280,8.0,13.0,35,0.00,,,0.00,0.000000,,2013-06-09 08:22:00,
2013-06-09 01:32:00,79.0,49.0,-100.00,West,280,8.0,13.0,35,0.00,,,0.00,0.000000,,2013-06-09 08:32:00,
2013-06-09 01:42:00,79.0,49.0,-100.00,West,280,8.0,13.0,35,0.00,,,0.00,0.000000,,2013-06-09 08:42:00,
2013-06-09 01:53:00,79.0,49.0,-100.00,West,280,8.0,13.0,35,0.00,,,0.00,0.000000,,2013-06-09 08:53:00,
2013-06-09 02:00:00,78.0,49.0,-100.00,WNW,288,4.0,13.0,36,0.00,,,0.00,0.000000,,2013-06-09 09:00:00,
2013-06-09 02:22:00,78.0,49.0,-100.00,WNW,288,4.0,13.0,36,0.00,,,0.00,0.000000,,2013-06-09 09:22:00,
2013-06-09 02:33:00,78.0,49.0,-100.00,WNW,288,4.0,13.0,36,0.00,,,0.00,0.000000,,2013-06-09 09:33:00,
2013-06-09 02:43:00,78.0,49.0,-100.00,WNW,288,4.0,13.0,36,0.00,,,0.00,0.000000,,2013-06-09 09:43:00,
2013-06-09 02:52:00,78.0,49.0,-100.00,WNW,288,4.0,13.0,36,0.00,,,0.00,0.000000,,2013-06-09 09:52:00,
2013-06-09 03:00:00,75.0,47.0,-100.00,WNW,294,6.0,11.0,37,0.00,,,0.00,0.000000,,2013-06-09 10:00:00,
2013-06-09 03:23:00,75.0,47.0,-100.00,WNW,294,6.0,11.0,37,0.00,,,0.00,0.000000,,2013-06-09 10:23:00,
2013-06-09 03:32:00,75.0,47.0,-100.00,WNW,294,6.0,11.0,37,0.00,,,0.00,0.000000,,2013-06-09 10:32:00,
2013-06-09 03:43:00,75.0,47.0,-100.00,WNW,294,6.0,11.0,37,0.00,,,0.00,0.000000,,2013-06-09 10:43:00,
2013-06-09 03:52:00,75.0,47.0,-100.00,WNW,294,6.0,11.0,37,0.00,,,0.00,0.000000,,2013-06-09 10:52:00,
2013-06-09 04:00:00,74.0,48.0,-100.00,WNW,290,7.0,10.0,40,0.00,,,0.00,0.000000,,2013-06-09 11:00:00,
2013-06-09 04:22:00,74.0,48.0,-100.00,WNW,290,7.0,10.0,40,0.00,,,0.00,0.000000,,2013-06-09 11:22:00,
2013-06-09 04:32:00,74.0,48.0,-100.00,WNW,290,7.0,10.0,40,0.00,,,0.00,0.000000,,2013-06-09 11:32:00,
2013-06-09 04:42:00,74.0,48.0,-100.00,WNW,290,7.0,10.0,40,0.00,,,0.00,0.000000,,2013-06-09 11:42:00,
2013-06-09 04:52:00,74.0,48.0,-100.00,WNW,290,7.0,10.0,40,0.00,,,0.00,0.000000,,2013-06-09 11:52:00,
2013-06-09 05:00:00,71.0,46.0,-100.00,WNW,294,8.0,13.0,41,0.00,,,-99.99,0.000000,,2013-06-09 12:00:00,
2013-06-09 05:22:00,71.0,46.0,-100.00,WNW,294,8.0,13.0,41,0.00,,,-99.99,0.000000,,2013-06-09 12:22:00,
2013-06-09 05:32:00,71.0,46.0,-100.00,WNW,294,8.0,13.0,41,0.00,,,-99.99,0.000000,,2013-06-09 12:32:00,
2013-06-09 05:42:00,71.0,46.0,-100.00,WNW,294,8.0,13.0,41,0.00,,,-99.99,0.000000,,2013-06-09 12:42:00,
2013-06-09 05:52:00,71.0,46.0,-100.00,WNW,294,8.0,13.0,41,0.00,,,-99.99,0.000000,,2013-06-09 12:52:00,
2013-06-09 06:00:00,70.0,46.0,-100.00,WNW,291,8.0,13.0,42,0.00,,,0.00,0.000000,,2013-06-09 13:00:00,
2013-06-09 06:22:00,70.0,46.0,-100.00,WNW,291,8.0,13.0,42,0.00,,,0.00,0.000000,,2013-06-09 13:22:00,
2013-06-09 06:32:00,70.0,46.0,-100.00,WNW,291,8.0,13.0,42,0.00,,,0.00,0.000000,,2013-06-09 13:32:00,
2013-06-09 06:42:00,70.0,46.0,-100.00,WNW,291,8.0,13.0,42,0.00,,,0.00,0.000000,,2013-06-09 13:42:00,
2013-06-09 06:52:00,70.0,46.0,-100.00,WNW,291,8.0,13.0,42,0.00,,,0.00,0.000000,,2013-06-09 13:52:00,
2013-06-09 07:00:00,71.0,47.0,-100.00,WNW,294,7.0,12.0,43,0.00,,,0.00,4.000000,,2013-06-09 14:00:00,
2013-06-09 07:22:00,71.0,47.0,-100.00,WNW,294,7.0,12.0,43,0.00,,,0.00,4.000000,,2013-06-09 14:22:00,
2013-06-09 07:32:00,71.0,47.0,-100.00,WNW,294,7.0,12.0,43,0.00,,,0.00,4.000000,,2013-06-09 14:32:00,
2013-06-09 07:43:00,71.0,47.0,-100.00,WNW,294,7.0,12.0,43,0.00,,,0.00,4.000000,,2013-06-09 14:43:00,
2013-06-09 07:52:00,71.0,47.0,-100.00,WNW,294,7.0,12.0,43,0.00,,,0.00,4.000000,,2013-06-09 14:52:00,
2013-06-09 08:00:00,79.0,48.0,-100.00,NW,310,0.0,11.0,34,0.00,,,0.00,117.000000,,2013-06-09 15:00:00,
2013-06-09 08:22:00,79.0,48.0,-100.00,NW,310,0.0,11.0,34,0.00,,,0.00,117.000000,,2013-06-09 15:22:00,
2013-06-09 08:33:00,79.0,48.0,-100.00,NW,310,0.0,11.0,34,0.00,,,0.00,117.000000,,2013-06-09 15:33:00,
2013-06-09 08:43:00,79.0,48.0,-100.00,NW,310,0.0,11.0,34,0.00,,,0.00,117.000000,,2013-06-09 15:43:00,
2013-06-09 08:53:00,79.0,48.0,-100.00,NW,310,0.0,11.0,34,0.00,,,0.00,117.000000,,2013-06-09 15:53:00,
2013-06-09 09:00:00,82.0,47.0,-100.00,East,101,3.0,4.0,30,0.00,,,0.00,385.000000,,2013-06-09 16:00:00,
2013-06-09 09:23:00,82.0,47.0,-100.00,East,101,3.0,4.0,30,0.00,,,0.00,385.000000,,2013-06-09 16:23:00,
2013-06-09 09:33:00,82.0,47.0,-100.00,East,101,3.0,4.0,30,0.00,,,0.00,385.000000,,2013-06-09 16:33:00,
2013-06-09 09:42:00,82.0,47.0,-100.00,East,101,3.0,4.0,30,0.00,,,0.00,385.000000,,2013-06-09 16:42:00,
2013-06-09 09:53:00,82.0,47.0,-100.00,East,101,3.0,4.0,30,0.00,,,0.00,385.000000,,2013-06-09 16:53:00,
2013-06-09 10:00:00,83.0,47.0,-100.00,ESE,115,2.0,7.0,29,0.00,,,-99.99,483.000000,,2013-06-09 17:00:00,
2013-06-09 10:22:00,83.0,47.0,-100.00,ESE,115,2.0,7.0,29,0.00,,,-99.99,483.000000,,2013-06-09 17:22:00,
2013-06-09 10:32:00,83.0,47.0,-100.00,ESE,115,2.0,7.0,29,0.00,,,-99.99,483.000000,,2013-06-09 17:32:00,
2013-06-09 10:42:00,83.0,47.0,-100.00,ESE,115,2.0,7.0,29,0.00,,,-99.99,483.000000,,2013-06-09 17:42:00,
2013-06-09 10:52:00,83.0,47.0,-100.00,ESE,115,2.0,7.0,29,0.00,,,-99.99,483.000000,,2013-06-09 17:52:00,
2013-06-09 11:00:00,90.0,48.0,-100.00,ESE,111,4.0,8.0,24,0.00,,,0.00,901.000000,,2013-06-09 18:00:00,
2013-06-09 11:22:00,90.0,48.0,-100.00,ESE,111,4.0,8.0,24,0.00,,,0.00,901.000000,,2013-06-09 18:22:00,
2013-06-09 11:33:00,90.0,48.0,-100.00,ESE,111,4.0,8.0,24,0.00,,,0.00,901.000000,,2013-06-09 18:33:00,
2013-06-09 11:42:00,90.0,48.0,-100.00,ESE,111,4.0,8.0,24,0.00,,,0.00,901.000000,,2013-06-09 18:42:00,
2013-06-09 11:52:00,90.0,48.0,-100.00,ESE,111,4.0,8.0,24,0.00,,,0.00,901.000000,,2013-06-09 18:52:00,
2013-06-09 12:00:00,95.0,48.0,-100.00,SE,131,4.0,11.0,20,0.00,,,0.00,1136.000000,,2013-06-09 19:00:00,
2013-06-09 12:22:00,95.0,48.0,-100.00,SE,131,4.0,11.0,20,0.00,,,0.00,1136.000000,,2013-06-09 19:22:00,
2013-06-09 12:32:00,95.0,48.0,-100.00,SE,131,4.0,11.0,20,0.00,,,0.00,1136.000000,,2013-06-09 19:32:00,
2013-06-09 12:43:00,95.0,48.0,-100.00,SE,131,4.0,11.0,20,0.00,,,0.00,1136.000000,,2013-06-09 19:43:00,
2013-06-09 12:52:00,95.0,48.0,-100.00,SE,131,4.0,11.0,20,0.00,,,0.00,1136.000000,,2013-06-09 19:52:00,
2013-06-09 13:00:00,94.0,44.0,-100.00,East,98,6.0,11.0,18,0.00,,,0.00,946.000000,,2013-06-09 20:00:00,
2013-06-09 13:22:00,94.0,44.0,-100.00,East,98,6.0,11.0,18,0.00,,,0.00,946.000000,,2013-06-09 20:22:00,
2013-06-09 13:32:00,94.0,44.0,-100.00,East,98,6.0,11.0,18,0.00,,,0.00,946.000000,,2013-06-09 20:32:00,
2013-06-09 13:42:00,94.0,44.0,-100.00,East,98,6.0,11.0,18,0.00,,,0.00,946.000000,,2013-06-09 20:42:00,
2013-06-09 13:52:00,94.0,44.0,-100.00,East,98,6.0,11.0,18,0.00,,,0.00,946.000000,,2013-06-09 20:52:00,
2013-06-09 14:00:00,98.0,39.0,-100.00,ESE,117,5.0,17.0,13,0.00,,,0.00,1131.000000,,2013-06-09 21:00:00,
2013-06-09 14:22:00,98.0,39.0,-100.00,ESE,117,5.0,17.0,13,0.00,,,0.00,1131.000000,,2013-06-09 21:22:00,
2013-06-09 14:33:00,98.0,39.0,-100.00,ESE,117,5.0,17.0,13,0.00,,,0.00,1131.000000,,2013-06-09 21:33:00,
2013-06-09 14:43:00,98.0,39.0,-100.00,ESE,117,5.0,17.0,13,0.00,,,0.00,1131.000000,,2013-06-09 21:43:00,
2013-06-09 14:53:00,98.0,39.0,-100.00,ESE,117,5.0,17.0,13,0.00,,,0.00,1131.000000,,2013-06-09 21:53:00,
2013-06-09 15:00:00,99.0,30.0,-100.00,ESE,105,7.0,24.0,9,0.00,,,0.00,1353.000000,,2013-06-09 22:00:00,
2013-06-09 15:23:00,99.0,30.0,-100.00,ESE,105,7.0,24.0,9,0.00,,,0.00,1353.000000,,2013-06-09 22:23:00,
2013-06-09 15:33:00,99.0,30.0,-100.00,ESE,105,7.0,24.0,9,0.00,,,0.00,1353.000000,,2013-06-09 22:33:00,
2013-06-09 15:42:00,99.0,30.0,-100.00,ESE,105,7.0,24.0,9,0.00,,,0.00,1353.000000,,2013-06-09 22:42:00,
2013-06-09 15:52:00,99.0,30.0,-100.00,ESE,105,7.0,24.0,9,0.00,,,0.00,1353.000000,,2013-06-09 22:52:00,
2013-06-09 16:00:00,98.0,27.0,-100.00,ESE,109,9.0,20.0,8,0.00,,,0.00,1276.000000,,2013-06-09 23:00:00,
2013-06-09 16:22:00,98.0,27.0,-100.00,ESE,109,9.0,20.0,8,0.00,,,0.00,1276.000000,,2013-06-09 23:22:00,
2013-06-09 16:32:00,98.0,27.0,-100.00,ESE,109,9.0,20.0,8,0.00,,,0.00,1276.000000,,2013-06-09 23:32:00,
2013-06-09 16:43:00,98.0,27.0,-100.00,ESE,109,9.0,20.0,8,0.00,,,0.00,1276.000000,,2013-06-09 23:43:00,
2013-06-09 16:52:00,98.0,27.0,-100.00,ESE,109,9.0,20.0,8,0.00,,,0.00,1276.000000,,2013-06-09 23:52:00,
2013-06-09 17:00:00,94.0,41.0,-100.00,West,265,9.0,19.0,16,0.00,,,0.00,1107.000000,,2013-06-10 00:00:00,
2013-06-09 17:22:00,94.0,41.0,-100.00,West,265,9.0,19.0,16,0.00,,,0.00,1107.000000,,2013-06-10 00:22:00,
2013-06-09 17:32:00,94.0,41.0,-100.00,West,265,9.0,19.0,16,0.00,,,0.00,1107.000000,,2013-06-10 00:32:00,
2013-06-09 17:42:00,94.0,41.0,-100.00,West,265,9.0,19.0,16,0.00,,,0.00,1107.000000,,2013-06-10 00:42:00,
2013-06-09 17:52:00,94.0,41.0,-100.00,West,265,9.0,19.0,16,0.00,,,0.00,1107.000000,,2013-06-10 00:52:00,
2013-06-09 18:00:00,93.0,37.0,-100.00,West,280,8.0,17.0,14,0.00,,,0.00,894.000000,,2013-06-10 01:00:00,
2013-06-09 18:22:00,93.0,37.0,-100.00,West,280,8.0,17.0,14,0.00,,,0.00,894.000000,,2013-06-10 01:22:00,
2013-06-09 18:32:00,93.0,37.0,-100.00,West,280,8.0,17.0,14,0.00,,,0.00,894.000000,,2013-06-10 01:32:00,
2013-06-09 18:43:00,93.0,37.0,-100.00,West,280,8.0,17.0,14,0.00,,,0.00,894.000000,,2013-06-10 01:43:00,
2013-06-09 18:52:00,93.0,37.0,-100.00,West,280,8.0,17.0,14,0.00,,,0.00,894.000000,,2013-06-10 01:52:00,
2013-06-09 19:00:00,89.0,41.0,-100.00,WNW,283,7.0,20.0,19,0.00,,,0.00,354.000000,,2013-06-10 02:00:00,
2013-06-09 19:22:00,89.0,41.0,-100.00,WNW,283,7.0,20.0,19,0.00,,,0.00,354.000000,,2013-06-10 02:22:00,
2013-06-09 19:32:00,89.0,41.0,-100.00,WNW,283,7.0,20.0,19,0.00,,,0.00,354.000000,,2013-06-10 02:32:00,
2013-06-09 19:42:00,89.0,41.0,-100.00,WNW,283,7.0,20.0,19,0.00,,,0.00,354.000000,,2013-06-10 02:42:00,
2013-06-09 19:52:00,89.0,41.0,-100.00,WNW,283,7.0,20.0,19,0.00,,,0.00,354.000000,,2013-06-10 02:52:00,
2013-06-09 20:00:00,86.0,45.0,-100.00,WNW,282,8.0,15.0,24,0.00,,,0.00,155.000000,,2013-06-10 03:00:00,
2013-06-09 20:22:00,86.0,45.0,-100.00,WNW,282,8.0,15.0,24,0.00,,,0.00,155.000000,,2013-06-10 03:22:00,
2013-06-09 20:33:00,86.0,45.0,-100.00,WNW,282,8.0,15.0,24,0.00,,,0.00,155.000000,,2013-06-10 03:33:00,
2013-06-09 20:43:00,86.0,45.0,-100.00,WNW,282,8.0,15.0,24,0.00,,,0.00,155.000000,,2013-06-10 03:43:00,
2013-06-09 20:53:00,86.0,45.0,-100.00,WNW,282,8.0,15.0,24,0.00,,,0.00,155.000000,,2013-06-10 03:53:00,
2013-06-09 21:00:00,79.0,38.0,-100.00,WNW,292,9.0,16.0,23,0.00,,,0.00,44.000000,,2013-06-10 04:00:00,
2013-06-09 21:23:00,79.0,38.0,-100.00,WNW,292,9.0,16.0,23,0.00,,,0.00,44.000000,,2013-06-10 04:23:00,
2013-06-09 21:33:00,79.0,38.0,-100.00,WNW,292,9.0,16.0,23,0.00,,,0.00,44.000000,,2013-06-10 04:33:00,
2013-06-09 21:42:00,79.0,38.0,-100.00,WNW,292,9.0,16.0,23,0.00,,,0.00,44.000000,,2013-06-10 04:42:00,
2013-06-09 21:52:00,79.0,38.0,-100.00,WNW,292,9.0,16.0,23,0.00,,,0.00,44.000000,,2013-06-10 04:52:00,
2013-06-09 22:00:00,77.0,39.0,-100.00,West,268,8.0,23.0,26,0.00,,,0.00,1.000000,,2013-06-10 05:00:00,
2013-06-09 22:22:00,77.0,39.0,-100.00,West,268,8.0,23.0,26,0.00,,,0.00,1.000000,,2013-06-10 05:22:00,
2013-06-09 22:32:00,77.0,39.0,-100.00,West,268,8.0,23.0,26,0.00,,,0.00,1.000000,,2013-06-10 05:32:00,
2013-06-09 22:42:00,77.0,39.0,-100.00,West,268,8.0,23.0,26,0.00,,,0.00,1.000000,,2013-06-10 05:42:00,
2013-06-09 22:52:00,77.0,39.0,-100.00,West,268,8.0,23.0,26,0.00,,,0.00,1.000000,,2013-06-10 05:52:00,
2013-06-09 23:00:00,72.0,42.0,-100.00,West,275,8.0,17.0,34,0.00,,,0.00,0.000000,,2013-06-10 06:00:00,
2013-06-09 23:22:00,72.0,42.0,-100.00,West,275,8.0,17.0,34,0.00,,,0.00,0.000000,,2013-06-10 06:22:00,
2013-06-09 23:32:00,72.0,42.0,-100.00,West,275,8.0,17.0,34,0.00,,,0.00,0.000000,,2013-06-10 06:32:00,
2013-06-09 23:42:00,72.0,42.0,-100.00,West,275,8.0,17.0,34,0.00,,,0.00,0.000000,,2013-06-10 06:42:00,
2013-06-09 23:52:00,72.0,42.0,-100.00,West,275,8.0,17.0,34,0.00,,,0.00,0.000000,,2013-06-10 06:52:00,